Time;durP1;ratioP1;P1;durP2;ratioP2;P2;SDS_P1;SDS_P2;PMS_P1;PMS_P2;Temp;Humidity;BMP_temperature;BMP_pressure;BME280_temperature;BME280_humidity;BME280_pressure;Samples;Min_cycle;Max_cycle;Signal;HPM_P1;HPM_P2
2021/06/25 00:00:01;;;;;;;0.28;0.20;;;14.20;99.90;;;;;;5054253;28;20396;-86
2021/06/25 00:02:28;;;;;;;2.15;0.30;;;14.20;99.90;;;;;;5050542;28;20398;-86
2021/06/25 00:04:55;;;;;;;0.30;0.30;;;14.20;99.90;;;;;;5051107;28;20387;-88
2021/06/25 00:07:22;;;;;;;1.10;0.30;;;14.20;99.90;;;;;;5051285;28;20394;-89
2021/06/25 00:09:49;;;;;;;1.73;0.20;;;14.30;99.90;;;;;;5053641;28;20388;-88
2021/06/25 00:12:16;;;;;;;0.30;0.25;;;14.40;99.90;;;;;;5077728;28;20435;-87
2021/06/25 00:14:43;;;;;;;0.25;0.20;;;14.40;99.90;;;;;;5054401;28;20390;-88
2021/06/25 00:17:10;;;;;;;0.30;0.20;;;14.60;99.90;;;;;;5054582;28;20451;-85
2021/06/25 00:19:37;;;;;;;0.60;0.30;;;15.00;99.90;;;;;;5059085;28;20385;-86
2021/06/25 00:22:04;;;;;;;0.85;0.20;;;15.80;99.90;;;;;;5058288;28;20393;-87
2021/06/25 00:24:31;;;;;;;0.35;0.17;;;17.00;99.20;;;;;;5063120;28;20375;-86
2021/06/25 00:26:58;;;;;;;0.53;0.20;;;17.40;98.20;;;;;;5050226;28;20375;-86
2021/06/25 00:29:25;;;;;;;0.20;0.20;;;17.20;98.30;;;;;;5056462;28;20394;-84
2021/06/25 00:31:52;;;;;;;1.17;0.30;;;16.70;99.50;;;;;;5049659;28;20929;-86
2021/06/25 00:34:19;;;;;;;0.63;0.20;;;16.30;99.60;;;;;;5059126;28;20387;-85
2021/06/25 00:36:46;;;;;;;1.20;0.20;;;15.80;98.90;;;;;;5050893;28;20412;-84
2021/06/25 00:39:14;;;;;;;0.10;0.10;;;15.50;99.90;;;;;;5050469;28;20427;-86
2021/06/25 00:41:42;;;;;;;0.43;0.10;;;15.20;99.90;;;;;;5055608;28;20902;-86
2021/06/25 00:44:20;;;;;;;0.65;0.30;;;15.10;99.90;;;;;;5069560;28;20400;-86
2021/06/25 00:46:47;;;;;;;1.20;0.20;;;15.10;99.90;;;;;;5065928;28;20387;-85
2021/06/25 00:49:15;;;;;;;0.43;0.20;;;15.00;99.90;;;;;;5049677;28;20375;-84
2021/06/25 00:51:43;;;;;;;0.27;0.20;;;15.00;99.90;;;;;;5052418;28;20439;-88
2021/06/25 00:54:11;;;;;;;1.10;0.10;;;15.00;99.90;;;;;;5050667;28;20420;-87
2021/06/25 00:56:38;;;;;;;0.50;0.20;;;15.00;99.90;;;;;;5051319;28;20537;-87
2021/06/25 00:59:06;;;;;;;1.20;0.20;;;15.00;99.90;;;;;;5062717;28;20415;-87
2021/06/25 01:01:33;;;;;;;0.60;0.20;;;14.90;99.90;;;;;;5069029;28;20477;-88
2021/06/25 01:04:00;;;;;;;1.30;0.20;;;14.90;99.90;;;;;;5065920;28;20423;-88
2021/06/25 01:06:28;;;;;;;0.20;0.10;;;14.80;99.90;;;;;;5053184;28;20539;-84
2021/06/25 01:08:56;;;;;;;0.55;0.30;;;14.90;99.90;;;;;;5069356;28;20381;-88
2021/06/25 01:11:23;;;;;;;1.40;0.28;;;14.80;99.90;;;;;;5068036;28;20425;-84
2021/06/25 01:13:51;;;;;;;0.20;0.20;;;14.90;99.90;;;;;;5063802;28;20388;-85
2021/06/25 01:16:18;;;;;;;1.30;0.22;;;14.90;99.90;;;;;;5050843;28;20376;-85
2021/06/25 01:18:45;;;;;;;0.60;0.30;;;15.00;99.90;;;;;;5052205;28;20394;-85
2021/06/25 01:21:12;;;;;;;1.50;0.33;;;15.00;99.90;;;;;;5059666;28;21187;-85
2021/06/25 01:23:41;;;;;;;0.20;0.20;;;15.10;99.90;;;;;;5051553;28;20794;-85
2021/06/25 01:26:09;;;;;;;0.30;0.28;;;15.20;99.90;;;;;;5050138;28;20417;-86
2021/06/25 01:28:36;;;;;;;0.68;0.30;;;15.30;99.90;;;;;;5054791;28;20885;-84
2021/06/25 01:31:05;;;;;;;0.50;0.30;;;15.30;99.90;;;;;;5061363;28;20467;-86
2021/06/25 01:33:35;;;;;;;1.20;0.20;;;15.40;99.90;;;;;;5060637;28;20481;-87
2021/06/25 01:36:02;;;;;;;0.43;0.20;;;15.50;99.90;;;;;;5070908;28;20410;-87
2021/06/25 01:38:29;;;;;;;0.20;0.20;;;15.40;99.90;;;;;;5057208;28;20398;-86
2021/06/25 01:40:58;;;;;;;1.00;0.20;;;15.30;99.90;;;;;;5054681;28;20405;-85
2021/06/25 01:43:27;;;;;;;0.47;0.32;;;15.30;99.90;;;;;;5050804;28;20422;-86
2021/06/25 01:45:54;;;;;;;0.32;0.17;;;15.30;99.90;;;;;;5054017;28;20427;-88
2021/06/25 01:48:22;;;;;;;1.20;0.30;;;15.40;99.90;;;;;;5052486;28;20392;-88
2021/06/25 01:50:49;;;;;;;1.73;0.22;;;15.40;99.90;;;;;;5060710;28;20392;-87
2021/06/25 01:53:18;;;;;;;6.40;0.40;;;15.40;99.90;;;;;;5052540;28;20818;-89
2021/06/25 01:55:49;;;;;;;0.70;0.28;;;15.40;99.90;;;;;;5067522;28;20366;-86
2021/06/25 01:58:28;;;;;;;0.80;0.40;;;15.40;99.90;;;;;;5053263;28;20443;-86
2021/06/25 02:01:10;;;;;;;0.40;0.30;;;15.50;99.90;;;;;;5056393;28;20380;-85
2021/06/25 02:03:38;;;;;;;0.20;0.20;;;15.60;99.90;;;;;;5068371;28;20449;-87
2021/06/25 02:06:06;;;;;;;0.98;0.30;;;15.60;99.90;;;;;;5052218;28;20389;-88
2021/06/25 02:08:34;;;;;;;0.82;0.25;;;15.80;99.90;;;;;;5060366;28;20404;-85
2021/06/25 02:11:01;;;;;;;0.30;0.17;;;15.80;99.90;;;;;;5084693;28;20479;-85
2021/06/25 02:13:29;;;;;;;0.40;0.20;;;15.80;99.90;;;;;;5078232;28;20386;-86
2021/06/25 02:15:56;;;;;;;1.80;0.40;;;15.80;99.90;;;;;;5059280;28;20394;-85
2021/06/25 02:18:23;;;;;;;0.30;0.30;;;15.90;99.90;;;;;;5049335;28;20407;-86
2021/06/25 02:20:50;;;;;;;0.85;0.20;;;16.00;99.90;;;;;;5060993;28;20418;-85
2021/06/25 02:23:17;;;;;;;1.00;0.20;;;16.00;99.90;;;;;;5063676;28;20393;-88
2021/06/25 02:25:45;;;;;;;0.20;0.20;;;16.00;99.90;;;;;;5048846;28;20382;-86
2021/06/25 02:28:12;;;;;;;0.90;0.20;;;16.00;99.90;;;;;;5047544;28;20739;-83
2021/06/25 02:30:39;;;;;;;0.60;0.40;;;16.10;99.90;;;;;;5055428;28;20399;-83
2021/06/25 02:33:06;;;;;;;1.20;0.30;;;16.10;99.90;;;;;;5059317;28;20879;-80
2021/06/25 02:35:33;;;;;;;0.60;0.20;;;16.20;99.90;;;;;;5078726;28;20461;-83
2021/06/25 02:38:00;;;;;;;1.13;0.20;;;16.20;99.90;;;;;;5057878;28;20392;-85
2021/06/25 02:40:27;;;;;;;1.00;0.20;;;16.20;99.90;;;;;;5055630;28;20838;-87
2021/06/25 02:42:57;;;;;;;2.42;0.47;;;16.30;99.80;;;;;;5066923;28;20457;-84
2021/06/25 02:45:24;;;;;;;1.30;0.40;;;16.30;99.90;;;;;;5053741;28;20412;-84
2021/06/25 02:47:51;;;;;;;0.38;0.30;;;16.30;99.90;;;;;;5060330;28;20430;-85
2021/06/25 02:50:18;;;;;;;0.40;0.30;;;16.40;99.20;;;;;;5050748;28;20392;-86
2021/06/25 02:52:46;;;;;;;0.90;0.40;;;16.40;99.80;;;;;;5054380;28;20411;-84
2021/06/25 02:55:14;;;;;;;0.98;0.30;;;16.50;99.30;;;;;;5058393;28;20393;-82
2021/06/25 02:57:41;;;;;;;0.20;0.20;;;16.50;99.30;;;;;;5059945;28;20438;-83
2021/06/25 03:00:15;;;;;;;0.47;0.38;;;16.60;99.70;;;;;;5054436;28;20379;-83
2021/06/25 03:02:43;;;;;;;1.38;0.25;;;16.70;98.30;;;;;;5061681;28;20394;-85
2021/06/25 03:05:12;;;;;;;0.20;0.20;;;16.80;98.00;;;;;;5063511;28;20387;-83
2021/06/25 03:07:39;;;;;;;0.90;0.20;;;16.80;97.50;;;;;;5060874;28;20395;-86
2021/06/25 03:10:07;;;;;;;1.70;0.20;;;16.70;97.40;;;;;;5059628;28;20956;-85
2021/06/25 03:12:35;;;;;;;0.40;0.30;;;16.70;97.40;;;;;;5056933;28;20481;-84
2021/06/25 03:15:03;;;;;;;0.20;0.20;;;16.70;97.30;;;;;;5057513;28;20485;-84
2021/06/25 03:17:30;;;;;;;1.40;0.20;;;16.70;97.10;;;;;;5059414;28;20461;-86
2021/06/25 03:19:57;;;;;;;0.55;0.10;;;16.80;95.80;;;;;;5054382;28;20400;-86
2021/06/25 03:22:24;;;;;;;0.10;0.10;;;16.70;97.00;;;;;;5053215;28;20498;-85
2021/06/25 03:24:51;;;;;;;0.50;0.20;;;16.80;96.70;;;;;;5071112;28;20366;-86
2021/06/25 03:27:21;;;;;;;1.33;0.30;;;16.80;95.80;;;;;;5071045;28;20854;-85
2021/06/25 03:29:51;;;;;;;2.13;0.20;;;16.80;95.80;;;;;;5066555;28;20475;-85
2021/06/25 03:32:18;;;;;;;0.43;0.15;;;16.80;95.60;;;;;;5050798;28;20503;-83
2021/06/25 03:34:45;;;;;;;1.10;0.20;;;16.80;95.90;;;;;;5051163;28;20364;-83
2021/06/25 03:37:12;;;;;;;0.80;0.20;;;16.80;95.40;;;;;;5050702;28;20396;-84
2021/06/25 03:39:39;;;;;;;0.20;0.10;;;16.80;95.90;;;;;;5049192;28;20395;-84
2021/06/25 03:42:06;;;;;;;0.60;0.20;;;16.80;95.60;;;;;;5056629;28;20764;-85
2021/06/25 03:44:33;;;;;;;0.20;0.10;;;16.80;96.20;;;;;;5055641;28;20398;-84
2021/06/25 03:47:00;;;;;;;0.15;0.10;;;16.90;95.80;;;;;;5060530;28;20384;-84
2021/06/25 03:49:27;;;;;;;3.97;0.30;;;16.90;95.50;;;;;;5052756;28;20402;-83
2021/06/25 03:51:54;;;;;;;0.30;0.20;;;16.90;94.40;;;;;;5049830;28;20502;-83
2021/06/25 03:54:21;;;;;;;0.30;0.20;;;16.90;94.60;;;;;;5055014;28;20778;-83
2021/06/25 03:56:49;;;;;;;0.20;0.10;;;16.80;93.80;;;;;;5050553;28;20897;-82
2021/06/25 03:59:16;;;;;;;1.50;0.10;;;16.80;93.40;;;;;;5051344;28;20422;-84
2021/06/25 04:01:43;;;;;;;0.40;0.00;;;16.80;93.90;;;;;;5049182;28;20403;-83
2021/06/25 04:04:10;;;;;;;0.10;0.10;;;16.80;93.80;;;;;;5069899;28;20754;-84
2021/06/25 04:06:38;;;;;;;0.50;0.20;;;16.80;93.50;;;;;;5090475;28;20373;-84
2021/06/25 04:09:05;;;;;;;0.93;0.20;;;16.80;93.90;;;;;;5075247;28;20379;-83
2021/06/25 04:11:33;;;;;;;0.45;0.10;;;16.80;94.00;;;;;;5068719;28;20432;-87
2021/06/25 04:14:00;;;;;;;0.60;0.10;;;16.80;93.40;;;;;;5068953;28;20382;-82
2021/06/25 04:16:27;;;;;;;0.95;0.20;;;16.80;93.50;;;;;;5055793;28;20415;-84
2021/06/25 04:18:54;;;;;;;0.30;0.20;;;16.80;93.50;;;;;;5053761;28;20531;-84
2021/06/25 04:21:21;;;;;;;0.57;0.10;;;16.70;93.60;;;;;;5052422;28;20923;-83
2021/06/25 04:23:49;;;;;;;0.30;0.10;;;16.70;92.80;;;;;;5050098;28;20434;-83
2021/06/25 04:26:16;;;;;;;0.40;0.10;;;16.70;92.90;;;;;;5054878;28;20431;-83
2021/06/25 04:28:43;;;;;;;0.40;0.10;;;16.70;93.40;;;;;;5056232;28;20402;-85
2021/06/25 04:31:10;;;;;;;0.17;0.08;;;16.70;93.60;;;;;;5050957;28;20481;-84
2021/06/25 04:33:39;;;;;;;0.30;0.10;;;16.70;92.30;;;;;;5050545;28;20406;-84
2021/06/25 04:36:06;;;;;;;2.10;0.10;;;16.70;92.50;;;;;;5058023;28;20408;-84
2021/06/25 04:38:33;;;;;;;0.40;0.10;;;16.60;92.00;;;;;;5052003;28;20403;-82
2021/06/25 04:41:01;;;;;;;1.10;0.30;;;16.60;91.30;;;;;;5056420;28;20401;-86
2021/06/25 04:43:28;;;;;;;2.08;0.20;;;16.50;91.90;;;;;;5063594;28;20394;-84
2021/06/25 04:45:55;;;;;;;0.27;0.13;;;16.50;91.80;;;;;;5048031;28;20400;-85
2021/06/25 04:48:22;;;;;;;0.10;0.10;;;16.50;92.00;;;;;;5050452;28;20407;-87
2021/06/25 04:50:49;;;;;;;0.50;0.10;;;16.40;92.00;;;;;;5048128;28;20448;-84
2021/06/25 04:53:16;;;;;;;0.47;0.20;;;16.50;92.00;;;;;;5051695;28;20734;-86
2021/06/25 04:55:45;;;;;;;1.45;0.20;;;16.50;92.10;;;;;;5068871;28;20495;-87
2021/06/25 04:58:17;;;;;;;0.68;0.20;;;16.50;92.00;;;;;;5063497;28;20406;-85
2021/06/25 05:00:46;;;;;;;1.30;0.20;;;16.50;92.50;;;;;;5052288;28;20434;-84
2021/06/25 05:03:13;;;;;;;0.40;0.10;;;16.40;92.80;;;;;;5051020;28;20404;-84
2021/06/25 05:05:42;;;;;;;0.43;0.10;;;16.40;92.60;;;;;;5049572;28;20499;-85
2021/06/25 05:08:10;;;;;;;0.20;0.10;;;16.40;92.50;;;;;;5050341;28;20437;-87
2021/06/25 05:10:37;;;;;;;0.20;0.10;;;16.40;92.30;;;;;;5047493;28;20391;-87
2021/06/25 05:13:07;;;;;;;0.08;0.00;;;16.40;92.10;;;;;;5047837;28;20898;-84
2021/06/25 05:15:34;;;;;;;0.00;0.00;;;16.30;90.80;;;;;;5050403;28;20480;-87
2021/06/25 05:18:16;;;;;;;1.10;0.10;;;16.30;91.50;;;;;;5048030;28;20392;-87
2021/06/25 05:20:44;;;;;;;0.20;0.10;;;16.30;91.70;;;;;;5061400;28;20916;-87
2021/06/25 05:23:13;;;;;;;0.20;0.20;;;16.20;92.20;;;;;;5049788;28;20407;-88
2021/06/25 05:25:41;;;;;;;0.30;0.20;;;16.20;91.80;;;;;;5049701;28;20454;-86
2021/06/25 05:28:09;;;;;;;0.10;0.10;;;16.10;91.80;;;;;;5047606;28;20398;-87
2021/06/25 05:30:36;;;;;;;0.40;0.20;;;16.10;91.60;;;;;;5053252;28;20400;-87
2021/06/25 05:33:04;;;;;;;0.30;0.20;;;16.10;92.50;;;;;;5047720;28;20501;-88
2021/06/25 05:35:32;;;;;;;0.35;0.10;;;16.00;92.30;;;;;;5051613;28;20944;-86
2021/06/25 05:38:07;;;;;;;0.90;0.10;;;15.90;91.60;;;;;;5048564;28;20403;-87
2021/06/25 05:40:34;;;;;;;0.80;0.10;;;15.90;92.60;;;;;;5053377;28;20402;-86
2021/06/25 05:43:04;;;;;;;0.50;0.15;;;15.90;92.60;;;;;;5053610;28;20398;-88
2021/06/25 05:45:31;;;;;;;0.20;0.10;;;15.90;92.90;;;;;;5053346;28;20384;-89
2021/06/25 05:47:58;;;;;;;0.20;0.10;;;15.80;92.50;;;;;;5048107;28;20383;-86
2021/06/25 05:50:26;;;;;;;0.40;0.22;;;15.70;92.80;;;;;;5068170;28;20833;-87
2021/06/25 05:52:53;;;;;;;0.32;0.20;;;15.70;92.60;;;;;;5068624;28;20498;-85
2021/06/25 05:55:21;;;;;;;1.10;0.20;;;15.70;92.90;;;;;;5062894;28;20475;-87
2021/06/25 05:57:48;;;;;;;1.20;0.20;;;15.60;93.80;;;;;;5046486;28;20490;-87
2021/06/25 06:00:16;;;;;;;0.40;0.15;;;15.60;93.10;;;;;;5050769;28;20431;-85
2021/06/25 06:02:44;;;;;;;1.10;0.13;;;15.60;92.80;;;;;;5051815;28;20393;-85
2021/06/25 06:05:12;;;;;;;1.02;0.25;;;15.60;92.40;;;;;;5048308;28;20397;-89
2021/06/25 06:07:39;;;;;;;1.20;0.20;;;15.50;93.20;;;;;;5055028;28;20619;-88
2021/06/25 06:10:09;;;;;;;0.32;0.20;;;15.40;93.50;;;;;;5054008;28;20933;-85
2021/06/25 06:12:37;;;;;;;0.55;0.10;;;15.40;93.90;;;;;;5057987;28;20442;-87
2021/06/25 06:15:05;;;;;;;0.30;0.13;;;15.40;93.40;;;;;;5061474;28;20425;-88
2021/06/25 06:17:32;;;;;;;1.80;0.10;;;15.30;92.80;;;;;;5054090;28;20392;-86
2021/06/25 06:19:59;;;;;;;1.70;0.20;;;15.20;92.70;;;;;;5056231;28;20400;-87
2021/06/25 06:33:55;;;;;;;0.70;0.15;;;14.80;93.10;;;;;;5017369;28;20401;-87
2021/06/25 06:36:40;;;;;;;1.30;0.20;;;14.80;93.10;;;;;;5013993;28;20398;-86
2021/06/25 06:39:08;;;;;;;0.20;0.10;;;14.70;93.50;;;;;;5041654;28;20427;-87
2021/06/25 06:41:36;;;;;;;0.80;0.10;;;14.60;93.30;;;;;;5053392;28;20457;-87
2021/06/25 06:44:04;;;;;;;0.63;0.17;;;14.50;93.70;;;;;;5060152;28;20500;-86
2021/06/25 06:46:32;;;;;;;0.70;0.20;;;14.40;94.10;;;;;;5050528;28;20384;-87
2021/06/25 06:48:59;;;;;;;1.50;0.35;;;14.40;94.60;;;;;;5051042;28;20392;-87
2021/06/25 06:51:26;;;;;;;0.20;0.10;;;14.30;94.00;;;;;;5052176;28;20412;-86
2021/06/25 06:53:56;;;;;;;1.00;0.10;;;14.20;94.50;;;;;;5053267;28;20399;-84
2021/06/25 06:56:24;;;;;;;0.30;0.30;;;14.10;94.10;;;;;;5051871;28;20902;-87
2021/06/25 06:58:53;;;;;;;0.40;0.20;;;14.00;94.80;;;;;;5052830;28;20467;-87
2021/06/25 07:01:24;;;;;;;0.47;0.20;;;14.00;94.70;;;;;;5057400;28;20395;-85
2021/06/25 07:03:51;;;;;;;0.50;0.30;;;13.90;95.30;;;;;;5058141;28;20396;-87
2021/06/25 07:06:18;;;;;;;0.30;0.30;;;13.90;95.10;;;;;;5056290;28;20394;-86
2021/06/25 07:08:46;;;;;;;0.80;0.47;;;13.80;94.80;;;;;;5054543;28;20382;-86
2021/06/25 07:11:13;;;;;;;0.82;0.43;;;13.80;95.40;;;;;;5053958;28;20404;-87
2021/06/25 07:13:40;;;;;;;0.35;0.35;;;13.70;95.00;;;;;;5052070;28;20391;-87
2021/06/25 07:16:07;;;;;;;0.80;0.30;;;13.60;95.40;;;;;;5051563;28;20378;-85
2021/06/25 07:18:34;;;;;;;0.30;0.30;;;13.60;95.40;;;;;;5056881;28;20419;-86
2021/06/25 07:21:01;;;;;;;0.47;0.30;;;13.50;95.40;;;;;;5051616;28;20387;-88
2021/06/25 07:23:29;;;;;;;0.30;0.28;;;13.50;95.70;;;;;;5053559;28;20396;-88
2021/06/25 07:25:55;;;;;;;0.98;0.50;;;13.40;95.90;;;;;;5049630;28;20396;-87
2021/06/25 07:28:22;;;;;;;1.30;0.35;;;13.40;96.50;;;;;;5048507;28;20447;-87
2021/06/25 07:30:49;;;;;;;0.23;0.20;;;13.30;96.30;;;;;;5052547;28;20433;-86
2021/06/25 07:33:16;;;;;;;0.40;0.40;;;13.20;97.40;;;;;;5054564;28;20439;-86
2021/06/25 07:35:43;;;;;;;0.30;0.30;;;13.10;97.30;;;;;;5053095;28;20386;-86
2021/06/25 07:38:10;;;;;;;0.70;0.40;;;13.00;97.60;;;;;;5053972;28;20870;-87
2021/06/25 07:40:37;;;;;;;0.40;0.30;;;12.90;97.80;;;;;;5052590;28;20411;-87
2021/06/25 07:43:04;;;;;;;1.88;0.35;;;12.90;98.50;;;;;;5066452;28;20436;-87
2021/06/25 07:45:31;;;;;;;0.52;0.40;;;12.70;98.70;;;;;;5050690;28;20386;-86
2021/06/25 07:47:58;;;;;;;1.50;0.38;;;12.70;98.60;;;;;;5057534;28;20403;-88
2021/06/25 07:50:27;;;;;;;0.80;0.50;;;12.70;98.40;;;;;;5067143;28;20402;-85
2021/06/25 07:53:06;;;;;;;0.60;0.28;;;12.70;98.80;;;;;;5059061;28;20794;-86
2021/06/25 07:55:33;;;;;;;0.40;0.30;;;12.60;99.10;;;;;;5057660;28;20757;-86
2021/06/25 07:58:00;;;;;;;1.10;0.50;;;12.60;99.40;;;;;;5062562;28;20948;-85
2021/06/25 08:00:27;;;;;;;0.65;0.50;;;12.40;99.40;;;;;;5050513;28;20771;-86
2021/06/25 08:02:54;;;;;;;2.50;0.60;;;12.40;99.90;;;;;;5049261;28;20384;-85
2021/06/25 08:05:21;;;;;;;1.00;0.70;;;12.30;99.70;;;;;;5060121;28;20497;-85
2021/06/25 08:07:48;;;;;;;1.80;0.70;;;12.20;99.90;;;;;;5061965;28;20503;-85
2021/06/25 08:10:15;;;;;;;1.20;0.80;;;12.20;99.90;;;;;;5050446;28;20437;-85
2021/06/25 08:12:42;;;;;;;6.25;5.70;;;12.10;99.90;;;;;;5050400;28;20883;-85
2021/06/25 08:15:10;;;;;;;12.25;11.05;;;12.10;99.90;;;;;;5063713;28;20394;-86
2021/06/25 08:17:37;;;;;;;12.88;11.60;;;12.10;99.90;;;;;;5049763;28;20403;-85
2021/06/25 08:20:06;;;;;;;14.73;13.18;;;12.00;99.90;;;;;;5053019;28;20390;-86
2021/06/25 08:22:33;;;;;;;13.07;11.63;;;12.00;99.90;;;;;;5052226;28;20398;-85
2021/06/25 08:25:00;;;;;;;13.85;12.32;;;11.90;99.90;;;;;;5052655;28;21082;-85
2021/06/25 08:27:27;;;;;;;16.38;14.40;;;11.90;99.90;;;;;;5053766;28;20391;-85
2021/06/25 08:29:57;;;;;;;16.60;14.38;;;11.80;99.90;;;;;;5052048;28;20391;-86
2021/06/25 08:32:24;;;;;;;24.58;21.23;;;11.80;99.90;;;;;;5053484;28;20414;-86
2021/06/25 08:34:51;;;;;;;28.15;25.13;;;11.70;99.90;;;;;;5058723;28;20438;-84
2021/06/25 08:37:18;;;;;;;15.43;13.43;;;11.70;99.90;;;;;;5049698;28;20403;-86
2021/06/25 08:39:45;;;;;;;18.80;15.70;;;11.70;99.90;;;;;;5048251;28;20491;-85
2021/06/25 08:42:14;;;;;;;12.87;11.20;;;11.60;99.90;;;;;;5052688;28;20903;-85
2021/06/25 08:44:42;;;;;;;10.95;9.77;;;11.50;99.90;;;;;;5050524;28;20983;-85
2021/06/25 08:47:09;;;;;;;28.27;21.35;;;11.60;99.90;;;;;;5058403;28;20542;-84
2021/06/25 08:49:38;;;;;;;25.85;21.77;;;11.50;99.90;;;;;;5053154;28;20401;-85
2021/06/25 08:52:11;;;;;;;16.53;14.70;;;11.40;99.90;;;;;;5049576;28;20403;-83
2021/06/25 08:54:38;;;;;;;11.95;10.23;;;11.20;99.90;;;;;;5054453;28;20881;-85
2021/06/25 08:57:07;;;;;;;9.60;8.60;;;11.10;99.90;;;;;;5050669;28;20415;-85
2021/06/25 08:59:35;;;;;;;6.38;5.43;;;11.00;99.90;;;;;;5050144;28;20912;-85
2021/06/25 09:02:03;;;;;;;6.30;4.43;;;11.00;99.90;;;;;;5049296;28;20414;-86
2021/06/25 09:04:34;;;;;;;7.03;4.40;;;10.90;99.90;;;;;;5060987;28;20523;-86
2021/06/25 09:07:02;;;;;;;5.40;4.10;;;10.90;99.90;;;;;;5066103;28;20402;-85
2021/06/25 09:09:49;;;;;;;3.95;3.40;;;10.90;99.90;;;;;;5062157;28;20410;-85
2021/06/25 09:12:28;;;;;;;3.13;2.60;;;10.90;99.90;;;;;;5051644;28;20637;-86
2021/06/25 09:15:17;;;;;;;3.78;3.00;;;10.90;99.90;;;;;;5068072;28;20958;-85
2021/06/25 09:18:04;;;;;;;3.30;3.00;;;10.90;99.90;;;;;;5066453;28;20435;-85
2021/06/25 09:20:45;;;;;;;3.20;2.90;;;10.80;99.90;;;;;;5062718;28;20877;-84
2021/06/25 09:23:15;;;;;;;4.60;3.40;;;10.80;99.90;;;;;;5059251;28;21861;-85
2021/06/25 09:26:09;;;;;;;7.22;5.78;;;10.80;99.90;;;;;;5057040;28;20395;-85
2021/06/25 09:28:40;;;;;;;6.60;6.00;;;10.80;99.90;;;;;;5068115;28;20389;-86
2021/06/25 09:31:19;;;;;;;5.97;5.32;;;10.70;99.90;;;;;;5054253;28;20391;-86
2021/06/25 09:33:51;;;;;;;5.75;4.60;;;10.60;99.90;;;;;;5059745;28;20398;-85
2021/06/25 09:36:33;;;;;;;5.20;4.70;;;10.60;99.90;;;;;;5061445;28;20409;-85
2021/06/25 09:39:12;;;;;;;4.80;4.30;;;10.50;99.90;;;;;;5059392;28;20390;-86
2021/06/25 09:41:42;;;;;;;4.25;3.85;;;10.50;99.90;;;;;;5063658;28;20414;-86
2021/06/25 09:44:28;;;;;;;4.68;3.95;;;10.40;99.90;;;;;;5057738;28;20393;-86
2021/06/25 09:46:55;;;;;;;5.10;4.07;;;10.40;99.90;;;;;;5054054;28;20419;-86
2021/06/25 09:49:32;;;;;;;3.85;3.17;;;10.40;99.90;;;;;;5055638;28;20453;-85
2021/06/25 09:52:02;;;;;;;4.28;3.53;;;10.40;99.90;;;;;;5061372;28;20401;-85
2021/06/25 09:54:30;;;;;;;6.57;5.50;;;10.30;99.90;;;;;;5050319;28;20798;-85
2021/06/25 10:02:22;;;;;;;4.78;3.90;;;10.30;99.90;;;;;;5062797;28;20839;-86
2021/06/25 10:04:56;;;;;;;7.05;4.20;;;10.30;99.90;;;;;;5055916;28;20400;-86
2021/06/25 10:07:30;;;;;;;4.57;4.00;;;10.30;99.90;;;;;;5062297;28;20374;-87
2021/06/25 10:10:02;;;;;;;6.47;4.45;;;10.40;99.90;;;;;;5055213;28;20382;-86
2021/06/25 10:12:29;;;;;;;4.40;3.53;;;10.40;99.90;;;;;;5055775;28;20469;-86
2021/06/25 10:14:56;;;;;;;3.97;2.93;;;10.40;99.90;;;;;;5058540;28;20512;-85
2021/06/25 10:17:28;;;;;;;3.60;2.80;;;10.40;99.90;;;;;;5053997;28;20487;-85
2021/06/25 10:20:10;;;;;;;3.95;3.55;;;10.40;99.90;;;;;;5053300;28;20399;-86
2021/06/25 10:22:43;;;;;;;4.53;3.73;;;10.40;99.90;;;;;;5052477;28;20534;-87
2021/06/25 10:25:12;;;;;;;4.30;3.88;;;10.40;99.90;;;;;;5068276;28;20978;-86
2021/06/25 10:27:40;;;;;;;4.13;3.58;;;10.30;99.90;;;;;;5044117;28;20750;-86
2021/06/25 10:30:08;;;;;;;4.85;3.55;;;10.30;99.90;;;;;;5044604;28;20502;-82
2021/06/25 10:32:38;;;;;;;3.92;3.53;;;10.30;99.90;;;;;;5046063;28;20546;-86
2021/06/25 10:35:10;;;;;;;3.00;2.70;;;10.20;99.90;;;;;;5047502;28;20463;-87
2021/06/25 10:37:41;;;;;;;3.17;2.50;;;10.20;99.90;;;;;;5048970;28;20395;-86
2021/06/25 10:40:27;;;;;;;2.40;2.20;;;10.20;99.90;;;;;;5050178;28;20396;-87
2021/06/25 10:42:57;;;;;;;2.38;1.95;;;10.20;99.90;;;;;;5046542;28;20501;-86
2021/06/25 10:45:43;;;;;;;2.50;1.80;;;10.30;99.90;;;;;;5061571;28;20523;-86
2021/06/25 10:48:10;;;;;;;1.97;1.70;;;10.30;99.90;;;;;;5046536;28;20388;-87
2021/06/25 10:50:37;;;;;;;1.98;1.88;;;10.30;99.90;;;;;;5053027;28;20399;-86
2021/06/25 10:53:19;;;;;;;2.70;2.22;;;10.30;99.90;;;;;;5055303;28;20442;-83
2021/06/25 10:56:07;;;;;;;2.88;2.28;;;10.30;99.90;;;;;;5049186;28;20850;-86
2021/06/25 10:58:35;;;;;;;3.20;2.80;;;10.30;99.90;;;;;;5052689;28;20399;-85
2021/06/25 11:01:05;;;;;;;4.75;3.38;;;10.20;99.90;;;;;;5057152;28;20483;-87
2021/06/25 11:03:41;;;;;;;4.55;4.10;;;10.20;99.90;;;;;;5059648;28;20428;-84
2021/06/25 11:06:34;;;;;;;4.75;3.95;;;10.20;99.90;;;;;;5053012;28;20456;-84
2021/06/25 11:09:06;;;;;;;3.25;3.00;;;10.10;99.90;;;;;;5053837;28;20406;-86
2021/06/25 11:11:34;;;;;;;2.40;2.10;;;10.10;99.90;;;;;;5055970;28;20401;-85
2021/06/25 11:14:02;;;;;;;2.30;2.10;;;10.10;99.90;;;;;;5057262;28;20401;-85
2021/06/25 11:16:29;;;;;;;1.80;1.70;;;10.10;99.90;;;;;;5054369;28;20394;-87
2021/06/25 11:18:59;;;;;;;2.05;1.67;;;10.20;99.90;;;;;;5060290;28;20384;-86
2021/06/25 11:21:43;;;;;;;1.58;1.48;;;10.20;99.90;;;;;;5051262;28;20805;-84
2021/06/25 11:24:11;;;;;;;1.77;1.60;;;10.20;99.90;;;;;;5057745;28;20484;-85
2021/06/25 11:26:55;;;;;;;3.15;2.00;;;10.20;99.90;;;;;;5066133;28;20649;-85
2021/06/25 11:29:41;;;;;;;1.80;1.60;;;10.20;99.90;;;;;;5052456;28;20403;-86
2021/06/25 11:32:25;;;;;;;2.55;1.85;;;10.20;99.90;;;;;;5050174;28;20420;-85
2021/06/25 11:34:52;;;;;;;1.83;1.40;;;10.10;99.90;;;;;;5048736;28;20449;-86
2021/06/25 11:37:19;;;;;;;2.30;1.90;;;10.10;99.90;;;;;;5052637;28;20396;-86
2021/06/25 11:39:51;;;;;;;1.98;1.60;;;10.10;99.90;;;;;;5054212;28;20392;-84
2021/06/25 11:42:18;;;;;;;2.00;1.27;;;10.00;99.90;;;;;;5064048;28;20471;-84
2021/06/25 11:44:51;;;;;;;1.45;1.08;;;10.10;99.90;;;;;;5053081;28;20411;-84
2021/06/25 11:47:28;;;;;;;1.35;1.13;;;10.20;99.90;;;;;;5050196;28;20403;-85
2021/06/25 11:50:01;;;;;;;1.45;1.20;;;10.30;99.90;;;;;;5056419;28;20388;-84
2021/06/25 11:52:31;;;;;;;2.58;1.80;;;10.40;99.90;;;;;;5053749;28;20981;-81
2021/06/25 11:55:05;;;;;;;2.05;1.55;;;10.40;99.90;;;;;;5054182;28;20391;-84
2021/06/25 11:57:34;;;;;;;2.00;1.03;;;10.40;99.90;;;;;;5054430;28;20880;-83
2021/06/25 12:00:15;;;;;;;0.90;0.80;;;10.50;99.90;;;;;;5050251;28;20367;-84
2021/06/25 12:02:49;;;;;;;1.25;1.08;;;10.50;99.90;;;;;;5050678;28;20447;-85
2021/06/25 12:05:18;;;;;;;1.40;0.93;;;10.60;99.90;;;;;;5053934;28;20754;-82
2021/06/25 12:07:46;;;;;;;1.88;1.27;;;10.60;99.90;;;;;;5051894;28;20427;-84
2021/06/25 12:10:19;;;;;;;1.45;1.10;;;10.60;99.90;;;;;;5049898;28;20399;-85
2021/06/25 12:12:55;;;;;;;1.08;0.85;;;10.50;99.90;;;;;;5053426;28;20410;-84
2021/06/25 12:15:22;;;;;;;1.15;1.05;;;10.50;99.90;;;;;;5064716;28;20471;-85
2021/06/25 12:17:55;;;;;;;1.85;1.30;;;10.60;99.90;;;;;;5049987;28;20418;-84
2021/06/25 12:20:27;;;;;;;1.67;1.30;;;10.50;99.90;;;;;;5051930;28;20390;-85
2021/06/25 12:22:58;;;;;;;1.30;1.20;;;10.50;99.90;;;;;;5053753;28;20399;-84
2021/06/25 12:25:49;;;;;;;1.40;1.30;;;10.50;99.90;;;;;;5052010;28;20395;-85
2021/06/25 12:28:23;;;;;;;1.20;1.10;;;10.40;99.90;;;;;;5052814;28;20410;-84
2021/06/25 12:30:54;;;;;;;1.88;1.23;;;10.40;99.90;;;;;;5049830;28;20421;-85
2021/06/25 12:33:24;;;;;;;1.10;1.05;;;10.40;99.90;;;;;;5050006;28;20906;-83
2021/06/25 12:35:55;;;;;;;1.30;1.13;;;10.40;99.90;;;;;;5051246;28;20383;-82
2021/06/25 12:38:27;;;;;;;1.58;1.40;;;10.40;99.90;;;;;;5050778;28;20452;-84
2021/06/25 12:40:59;;;;;;;2.42;1.92;;;10.50;99.90;;;;;;5053927;28;20396;-83
2021/06/25 12:43:31;;;;;;;3.28;2.38;;;10.50;99.90;;;;;;5049972;28;20442;-85
2021/06/25 12:46:11;;;;;;;1.27;1.17;;;10.40;99.90;;;;;;5050149;28;20490;-82
2021/06/25 12:48:48;;;;;;;8.50;6.28;;;10.50;99.90;;;;;;5052298;28;20429;-83
2021/06/25 12:51:20;;;;;;;6.00;4.45;;;10.50;99.90;;;;;;5051770;28;20477;-83
2021/06/25 12:53:49;;;;;;;2.35;1.95;;;10.40;99.90;;;;;;5055242;28;20742;-85
2021/06/25 12:56:21;;;;;;;1.92;1.40;;;10.50;99.90;;;;;;5050952;28;20905;-83
2021/06/25 12:58:56;;;;;;;1.10;1.00;;;10.50;99.90;;;;;;5053416;28;20489;-83
2021/06/25 13:01:23;;;;;;;2.58;1.80;;;10.60;99.90;;;;;;5049208;28;20406;-83
2021/06/25 13:03:50;;;;;;;1.10;1.00;;;10.60;99.90;;;;;;5059194;28;20395;-83
2021/06/25 13:06:36;;;;;;;1.65;1.35;;;10.70;99.90;;;;;;5049294;28;20804;-83
2021/06/25 13:09:05;;;;;;;1.80;1.10;;;10.70;99.90;;;;;;5050420;28;20481;-82
2021/06/25 13:11:34;;;;;;;1.20;1.10;;;10.70;99.90;;;;;;5048930;28;20410;-83
2021/06/25 13:14:01;;;;;;;0.98;0.95;;;10.80;99.90;;;;;;5050690;28;20390;-83